Time;durP1;ratioP1;P1;durP2;ratioP2;P2;SDS_P1;SDS_P2;PMS_P1;PMS_P2;Temp;Humidity;BMP_temperature;BMP_pressure;BME280_temperature;BME280_humidity;BME280_pressure;Samples;Min_cycle;Max_cycle;Signal;HPM_P1;HPM_P2
2024/01/27 00:00:11;;;;;;;2.70;1.10;;;;;;;7.17;100.00;102004.69;2088036;28;20642;-62
2024/01/27 00:01:12;;;;;;;2.20;0.95;;;;;;;7.22;100.00;102016.16;2089623;28;20189;-63
2024/01/27 00:02:12;;;;;;;3.10;0.80;;;;;;;7.24;100.00;102016.59;2087690;28;20391;-63
2024/01/27 00:03:13;;;;;;;3.50;1.20;;;;;;;7.26;100.00;102011.50;2089155;28;20180;-63
2024/01/27 00:04:13;;;;;;;1.60;1.13;;;;;;;7.33;100.00;102011.56;2088522;28;20194;-63
2024/01/27 00:05:14;;;;;;;2.00;1.00;;;;;;;7.37;100.00;102017.13;2088463;28;20192;-63
2024/01/27 00:06:14;;;;;;;2.23;1.20;;;;;;;7.28;100.00;102011.91;2088384;28;20196;-62
2024/01/27 00:07:15;;;;;;;2.67;1.30;;;;;;;7.40;100.00;102016.38;2088910;28;20221;-62
2024/01/27 00:08:15;;;;;;;3.37;1.13;;;;;;;7.41;100.00;102015.19;2087991;28;20189;-62
2024/01/27 00:09:16;;;;;;;3.20;1.10;;;;;;;7.34;100.00;102007.63;2089380;28;20566;-62
2024/01/27 00:10:16;;;;;;;1.20;0.90;;;;;;;7.43;100.00;102002.63;2088806;28;20681;-62
2024/01/27 00:11:17;;;;;;;2.93;1.23;;;;;;;7.30;100.00;101997.75;2088892;28;20191;-62
2024/01/27 00:12:18;;;;;;;2.63;0.90;;;;;;;7.36;100.00;102010.00;2088372;28;20185;-63
2024/01/27 00:13:18;;;;;;;1.43;0.90;;;;;;;7.40;100.00;102013.63;2088737;28;20274;-63
2024/01/27 00:14:19;;;;;;;1.83;1.10;;;;;;;7.43;100.00;102008.13;2088874;28;20648;-62
2024/01/27 00:15:19;;;;;;;3.03;1.27;;;;;;;7.42;100.00;102009.31;2088242;28;20195;-62
2024/01/27 00:16:20;;;;;;;2.20;1.60;;;;;;;7.40;100.00;102013.63;2088618;28;20180;-63
2024/01/27 00:17:25;;;;;;;1.97;1.00;;;;;;;6.97;100.00;101937.13;2088725;28;20283;-62
2024/01/27 00:18:25;;;;;;;4.63;1.00;;;;;;;7.50;100.00;102002.72;2088616;28;20898;-63
2024/01/27 00:19:26;;;;;;;4.07;1.50;;;;;;;7.55;100.00;102010.66;2088398;28;20200;-62
2024/01/27 00:20:26;;;;;;;2.80;1.03;;;;;;;7.51;100.00;102014.53;2089040;28;20195;-63
2024/01/27 00:21:27;;;;;;;1.70;0.90;;;;;;;7.55;100.00;102002.38;2088221;28;20279;-62
2024/01/27 00:22:28;;;;;;;1.70;0.90;;;;;;;7.58;100.00;102009.09;2088752;28;20196;-63
2024/01/27 00:23:28;;;;;;;1.63;0.87;;;;;;;7.57;100.00;102005.53;2088644;28;20566;-63
2024/01/27 00:24:29;;;;;;;6.03;1.03;;;;;;;7.57;100.00;102013.81;2088559;28;21451;-63
2024/01/27 00:25:29;;;;;;;2.53;1.03;;;;;;;7.54;100.00;102011.00;2088245;28;20186;-62
2024/01/27 00:26:30;;;;;;;3.13;1.20;;;;;;;7.46;100.00;102018.41;2089271;28;20669;-63
2024/01/27 00:27:30;;;;;;;3.13;1.23;;;;;;;7.50;100.00;102019.25;2088639;28;20203;-63
2024/01/27 00:28:31;;;;;;;1.97;1.20;;;;;;;7.52;100.00;102018.84;2088254;28;20192;-62
2024/01/27 00:29:31;;;;;;;3.57;1.40;;;;;;;7.54;100.00;102022.81;2088459;28;20220;-62
2024/01/27 00:30:32;;;;;;;2.23;1.17;;;;;;;7.53;100.00;102021.25;2088184;28;21572;-63
2024/01/27 00:31:32;;;;;;;2.93;1.07;;;;;;;7.54;100.00;102027.56;2088038;28;21125;-63
2024/01/27 00:32:33;;;;;;;3.00;1.27;;;;;;;7.60;100.00;102031.56;2088166;28;20180;-62
2024/01/27 00:33:35;;;;;;;3.67;1.10;;;;;;;7.39;100.00;102006.53;2087889;28;21221;-62
2024/01/27 00:34:36;;;;;;;2.60;1.17;;;;;;;7.58;100.00;102026.44;2088677;28;20183;-62
2024/01/27 00:35:37;;;;;;;2.83;1.03;;;;;;;7.59;100.00;102025.25;2089166;28;20194;-62
2024/01/27 00:36:37;;;;;;;3.60;1.30;;;;;;;7.56;100.00;102028.78;2088361;28;20192;-62
2024/01/27 00:37:38;;;;;;;2.30;1.30;;;;;;;7.56;100.00;102033.50;2088124;28;20584;-63
2024/01/27 00:38:38;;;;;;;1.63;1.03;;;;;;;7.37;100.00;102004.13;2088181;28;20268;-63
2024/01/27 00:39:39;;;;;;;4.53;1.30;;;;;;;7.56;100.00;102027.97;2088423;28;20230;-62
2024/01/27 00:40:40;;;;;;;1.47;0.80;;;;;;;6.84;100.00;101909.03;2087884;28;20666;-63
2024/01/27 00:41:40;;;;;;;1.93;0.83;;;;;;;7.64;100.00;102030.41;2087060;28;20182;-63
2024/01/27 00:42:41;;;;;;;5.77;1.30;;;;;;;7.68;100.00;102020.22;2088291;28;20187;-63
2024/01/27 00:43:41;;;;;;;1.37;1.07;;;;;;;7.75;100.00;102023.03;2088896;28;20249;-63
2024/01/27 00:44:42;;;;;;;3.23;1.00;;;;;;;7.81;100.00;102024.31;2087848;28;20267;-63
2024/01/27 00:45:42;;;;;;;1.47;0.80;;;;;;;7.87;99.64;102021.97;2088195;28;20185;-63
2024/01/27 00:46:43;;;;;;;2.47;1.10;;;;;;;7.77;99.17;102017.16;2088484;28;20190;-62
2024/01/27 00:47:44;;;;;;;3.10;1.33;;;;;;;7.91;99.05;102020.84;2087917;28;20187;-63
2024/01/27 00:48:44;;;;;;;4.43;1.80;;;;;;;7.83;98.24;102015.63;2088079;28;20291;-63
2024/01/27 00:49:45;;;;;;;2.03;1.10;;;;;;;7.88;98.57;102018.03;2088296;28;20228;-62
2024/01/27 00:50:45;;;;;;;3.10;1.00;;;;;;;6.99;97.94;101863.91;2088673;28;20271;-63
2024/01/27 00:51:46;;;;;;;1.67;1.00;;;;;;;8.02;97.42;102013.47;2088491;28;20182;-62
2024/01/27 00:52:46;;;;;;;3.30;1.37;;;;;;;8.06;97.13;102019.00;2088634;28;20246;-63
2024/01/27 00:53:46;;;;;;;3.57;1.00;;;;;;;8.06;96.61;102011.53;2088349;28;20256;-63
2024/01/27 00:54:47;;;;;;;4.00;1.20;;;;;;;7.90;96.56;101996.38;2088390;28;20191;-63
2024/01/27 00:55:48;;;;;;;3.27;1.23;;;;;;;8.10;96.05;102017.84;2087326;28;20284;-63
2024/01/27 00:56:48;;;;;;;3.23;1.47;;;;;;;8.11;95.71;102030.47;2088437;28;20654;-63
2024/01/27 00:57:49;;;;;;;2.97;1.07;;;;;;;8.18;95.35;102022.25;2088326;28;20238;-62
2024/01/27 00:58:49;;;;;;;1.97;0.90;;;;;;;8.19;94.90;102023.03;2087962;28;20262;-63
2024/01/27 00:59:50;;;;;;;4.03;0.93;;;;;;;8.21;94.97;102021.50;2088946;28;20606;-63
2024/01/27 01:00:50;;;;;;;4.87;1.10;;;;;;;8.21;94.38;102012.44;2088285;28;20271;-62
2024/01/27 01:01:51;;;;;;;3.40;1.37;;;;;;;8.25;94.50;102013.28;2087042;28;20198;-63
2024/01/27 01:02:51;;;;;;;2.67;1.20;;;;;;;8.26;94.05;102009.34;2088364;28;20194;-62
2024/01/27 01:03:52;;;;;;;1.83;1.20;;;;;;;8.25;94.41;102011.28;2088177;28;20186;-63
2024/01/27 01:04:52;;;;;;;3.10;1.10;;;;;;;8.23;93.80;102010.09;2088688;28;20186;-63
2024/01/27 01:05:53;;;;;;;5.90;1.10;;;;;;;8.18;94.11;101996.59;2088141;28;20659;-63
2024/01/27 01:06:53;;;;;;;1.70;0.90;;;;;;;8.28;94.19;102024.34;2088157;28;20220;-62
2024/01/27 01:07:54;;;;;;;4.27;1.17;;;;;;;8.31;94.00;102001.47;2088760;28;20179;-63
2024/01/27 01:08:54;;;;;;;4.40;1.10;;;;;;;8.34;94.03;102010.97;2087919;28;20186;-63
2024/01/27 01:09:55;;;;;;;3.80;1.27;;;;;;;8.31;94.66;102007.00;2087546;28;20271;-63
2024/01/27 01:10:55;;;;;;;3.20;1.33;;;;;;;8.32;94.39;102014.13;2088205;28;20247;-62
2024/01/27 01:11:56;;;;;;;3.30;0.93;;;;;;;8.38;95.27;102018.13;2087819;28;20601;-63
2024/01/27 01:12:56;;;;;;;2.07;0.93;;;;;;;8.44;94.54;102024.84;2088502;28;20198;-63
2024/01/27 01:13:57;;;;;;;3.60;1.30;;;;;;;8.46;94.84;102018.94;2087964;28;20230;-63
2024/01/27 01:14:58;;;;;;;3.27;1.20;;;;;;;8.45;95.13;102009.84;2088409;28;20261;-63
2024/01/27 01:15:58;;;;;;;4.23;1.20;;;;;;;8.53;95.44;102011.50;2088078;28;20183;-63
2024/01/27 01:16:59;;;;;;;1.80;0.90;;;;;;;8.52;95.15;102007.16;2088343;28;20185;-63
2024/01/27 01:17:59;;;;;;;4.23;1.47;;;;;;;8.49;95.17;101994.09;2088031;28;20191;-63
2024/01/27 01:19:00;;;;;;;2.33;1.00;;;;;;;8.17;93.98;101946.13;2087925;28;20798;-62
2024/01/27 01:20:00;;;;;;;3.97;1.00;;;;;;;8.44;94.23;101993.66;2088231;28;20710;-63
2024/01/27 01:21:01;;;;;;;4.20;1.40;;;;;;;8.45;94.71;101992.50;2088478;28;20197;-63
2024/01/27 01:22:01;;;;;;;2.87;1.03;;;;;;;8.43;94.73;101992.88;2087373;28;20265;-62
2024/01/27 01:23:02;;;;;;;3.73;1.40;;;;;;;8.46;94.18;101985.81;2088057;28;20239;-62
2024/01/27 01:24:03;;;;;;;4.10;1.27;;;;;;;8.54;94.51;101996.50;2088083;28;20178;-62
2024/01/27 01:25:04;;;;;;;5.20;1.00;;;;;;;8.60;94.49;101992.19;2088856;28;20429;-62
2024/01/27 01:26:04;;;;;;;5.23;1.20;;;;;;;8.64;94.59;101989.44;2088424;28;20187;-63
2024/01/27 01:27:05;;;;;;;1.70;1.00;;;;;;;8.63;94.26;101982.34;2088153;28;20187;-63
2024/01/27 01:28:06;;;;;;;1.67;0.90;;;;;;;8.69;94.13;101989.88;2087913;28;20192;-62
2024/01/27 01:29:06;;;;;;;3.07;1.07;;;;;;;8.75;93.25;101984.75;2087335;28;20443;-63
2024/01/27 01:30:09;;;;;;;3.40;1.20;;;;;;;8.76;93.51;101983.63;2088052;28;20198;-63
2024/01/27 01:31:09;;;;;;;4.47;1.27;;;;;;;8.71;93.58;101989.50;2086624;28;20188;-62
2024/01/27 01:32:10;;;;;;;2.67;1.40;;;;;;;8.63;93.93;101987.88;2087260;28;20421;-63
2024/01/27 01:33:11;;;;;;;3.23;1.20;;;;;;;8.55;94.33;101994.53;2088974;28;20215;-62
2024/01/27 01:34:11;;;;;;;2.33;1.17;;;;;;;8.42;94.92;101988.53;2087971;28;20194;-63
2024/01/27 01:35:12;;;;;;;3.83;1.50;;;;;;;8.23;96.09;101994.31;2088325;28;20520;-63
2024/01/27 01:36:12;;;;;;;2.80;1.47;;;;;;;8.26;96.59;101995.53;2087434;28;20194;-62
2024/01/27 01:37:13;;;;;;;2.77;1.70;;;;;;;8.24;96.78;101993.13;2088236;28;20195;-63
2024/01/27 01:38:14;;;;;;;2.03;1.10;;;;;;;8.08;97.49;101992.59;2087855;28;20190;-62
2024/01/27 01:39:14;;;;;;;3.33;1.23;;;;;;;8.06;97.93;101996.91;2088181;28;20260;-62
2024/01/27 01:40:15;;;;;;;2.90;1.10;;;;;;;8.01;98.96;101994.50;2087864;28;20186;-63
2024/01/27 01:41:16;;;;;;;3.53;1.17;;;;;;;7.62;99.53;101955.53;2088231;28;20178;-63
2024/01/27 01:42:16;;;;;;;2.00;1.03;;;;;;;7.93;99.91;101990.09;2088116;28;20182;-63
2024/01/27 01:43:17;;;;;;;3.50;1.20;;;;;;;7.89;100.00;102000.31;2087774;28;20190;-62
2024/01/27 01:44:17;;;;;;;1.13;0.90;;;;;;;7.86;100.00;101988.09;2087329;28;20709;-63
2024/01/27 01:45:18;;;;;;;2.77;1.53;;;;;;;7.95;100.00;101990.50;2087716;28;20188;-63
2024/01/27 01:46:18;;;;;;;3.93;1.27;;;;;;;8.00;100.00;101984.66;2087788;28;20215;-63
2024/01/27 01:47:19;;;;;;;6.57;1.70;;;;;;;8.02;100.00;101983.09;2088246;28;20240;-63
2024/01/27 01:48:20;;;;;;;3.33;1.20;;;;;;;7.93;100.00;101976.28;2087450;28;20236;-63
2024/01/27 01:49:20;;;;;;;4.63;1.40;;;;;;;8.01;100.00;101973.22;2087835;28;20748;-62
2024/01/27 01:50:21;;;;;;;2.57;1.10;;;;;;;8.06;100.00;101964.59;2088340;28;20183;-63
2024/01/27 01:51:22;;;;;;;3.20;1.20;;;;;;;8.13;100.00;101970.16;2087045;28;20646;-63
2024/01/27 01:52:23;;;;;;;1.17;0.77;;;;;;;8.12;100.00;101948.44;2087261;28;20322;-62
2024/01/27 01:53:23;;;;;;;1.43;0.90;;;;;;;8.22;99.33;101970.66;2086676;28;20449;-62
2024/01/27 01:54:27;;;;;;;2.50;0.90;;;;;;;8.20;99.34;101953.66;2087890;28;20214;-62
2024/01/27 01:55:28;;;;;;;2.33;1.10;;;;;;;8.30;99.53;101955.69;2087744;28;20560;-63
2024/01/27 01:56:28;;;;;;;4.33;1.10;;;;;;;8.35;99.43;101962.84;2087518;28;20528;-63
2024/01/27 01:57:29;;;;;;;1.97;1.10;;;;;;;8.28;99.09;101929.63;2087052;28;20180;-62
2024/01/27 01:58:34;;;;;;;3.63;1.20;;;;;;;8.47;99.10;101957.78;2087650;28;20636;-63
2024/01/27 01:59:40;;;;;;;2.90;1.13;;;;;;;7.81;98.49;101836.66;2088211;28;20190;-62
2024/01/27 02:00:41;;;;;;;3.17;1.53;;;;;;;8.44;98.26;101941.16;2088813;28;20406;-62
2024/01/27 02:01:42;;;;;;;3.67;1.10;;;;;;;8.21;97.50;101871.63;2087445;28;20507;-62
2024/01/27 02:02:45;;;;;;;4.27;1.30;;;;;;;8.04;96.85;101836.38;2088110;28;20443;-62
2024/01/27 02:03:56;;;;;;;2.93;1.47;;;;;;;8.73;96.74;101948.44;2087716;28;20192;-63
2024/01/27 02:04:56;;;;;;;2.70;1.17;;;;;;;8.73;96.40;101946.47;2087281;28;20550;-63
2024/01/27 02:05:57;;;;;;;1.60;0.80;;;;;;;8.77;95.41;101952.78;2086938;28;20437;-63
2024/01/27 02:06:57;;;;;;;4.10;1.30;;;;;;;8.82;95.38;101951.66;2087918;28;20228;-63
2024/01/27 02:08:00;;;;;;;4.23;1.20;;;;;;;8.58;95.00;101932.97;2087701;28;20177;-63
2024/01/27 02:09:00;;;;;;;3.57;1.30;;;;;;;8.82;93.89;101951.66;2087732;28;20180;-63
2024/01/27 02:10:01;;;;;;;1.80;1.10;;;;;;;8.83;93.30;101942.16;2087719;28;20494;-63
2024/01/27 02:11:02;;;;;;;3.13;1.33;;;;;;;8.85;93.15;101948.09;2088268;28;20176;-62
2024/01/27 02:12:04;;;;;;;2.47;1.00;;;;;;;8.77;92.82;101935.44;2087416;28;20461;-63
2024/01/27 02:13:19;;;;;;;1.33;0.80;;;;;;;8.82;92.60;101954.41;2087907;28;20518;-63
2024/01/27 02:14:25;;;;;;;3.80;1.33;;;;;;;8.82;92.26;101946.91;2087573;28;20956;-63
2024/01/27 02:15:25;;;;;;;2.10;0.80;;;;;;;8.59;92.30;101921.53;2088205;28;20487;-63
2024/01/27 02:16:26;;;;;;;3.17;1.20;;;;;;;8.70;93.24;101946.44;2087723;28;20447;-63
2024/01/27 02:17:26;;;;;;;5.33;1.67;;;;;;;8.65;93.30;101946.81;2088056;28;20282;-63
2024/01/27 02:18:27;;;;;;;3.67;1.20;;;;;;;8.61;93.72;101926.69;2086556;28;20754;-63
2024/01/27 02:19:27;;;;;;;1.53;1.03;;;;;;;8.72;93.38;101935.81;2087935;28;20263;-62
2024/01/27 02:20:28;;;;;;;3.03;0.80;;;;;;;8.72;93.70;101939.34;2087865;28;20184;-63
2024/01/27 02:21:28;;;;;;;5.13;1.20;;;;;;;8.71;93.83;101934.22;2095295;28;20207;-63
2024/01/27 02:22:29;;;;;;;4.07;1.30;;;;;;;8.69;93.58;101923.56;2096052;28;20199;-63
2024/01/27 02:23:29;;;;;;;5.47;1.20;;;;;;;8.49;93.57;101896.59;2087098;28;20187;-63
2024/01/27 02:24:30;;;;;;;1.87;1.10;;;;;;;8.66;93.20;101929.84;2087230;28;20267;-62
2024/01/27 02:25:32;;;;;;;4.43;1.30;;;;;;;8.73;93.51;101929.09;2086952;28;20294;-63
2024/01/27 02:26:32;;;;;;;2.90;1.10;;;;;;;8.73;93.03;101920.81;2087014;28;20741;-63
2024/01/27 02:27:32;;;;;;;1.50;1.00;;;;;;;8.74;92.84;101914.09;2087158;28;20808;-62
2024/01/27 02:28:35;;;;;;;1.20;0.70;;;;;;;8.75;92.33;101908.19;2085719;28;20627;-63
2024/01/27 02:29:36;;;;;;;3.73;1.33;;;;;;;8.77;92.90;101905.81;2087730;28;20192;-63
2024/01/27 02:30:36;;;;;;;3.17;1.00;;;;;;;8.80;92.71;101905.03;2088094;28;20982;-63
2024/01/27 02:31:37;;;;;;;1.77;0.90;;;;;;;8.87;92.27;101898.75;2086912;28;20851;-63
2024/01/27 02:32:37;;;;;;;2.87;0.83;;;;;;;8.85;92.45;101896.38;2087907;28;20258;-63
2024/01/27 02:33:38;;;;;;;1.57;0.90;;;;;;;8.83;91.59;101903.47;2087518;28;20211;-64
2024/01/27 02:34:38;;;;;;;3.70;0.87;;;;;;;8.76;92.51;101893.19;2087325;28;20275;-63
2024/01/27 02:35:39;;;;;;;3.80;1.37;;;;;;;8.33;92.50;101835.38;2087599;28;20261;-62
2024/01/27 02:36:39;;;;;;;3.07;1.10;;;;;;;8.57;92.87;101865.06;2087591;28;20191;-63
2024/01/27 02:37:40;;;;;;;2.23;0.90;;;;;;;8.77;93.26;101902.28;2087620;28;20195;-63
2024/01/27 02:38:41;;;;;;;1.93;1.00;;;;;;;8.67;93.21;101883.66;2087945;28;20184;-62
2024/01/27 02:39:41;;;;;;;3.07;1.27;;;;;;;7.94;93.56;101773.63;2087673;28;20451;-63
2024/01/27 02:40:42;;;;;;;3.17;0.90;;;;;;;8.70;93.94;101889.22;2087694;28;20556;-62
2024/01/27 02:41:42;;;;;;;2.47;1.03;;;;;;;8.73;94.33;101882.91;2086934;28;20188;-63
2024/01/27 02:42:43;;;;;;;1.50;0.77;;;;;;;8.72;94.12;101884.06;2087142;28;20267;-63
2024/01/27 02:43:44;;;;;;;4.33;1.30;;;;;;;8.28;94.33;101811.69;2087348;28;20188;-63
2024/01/27 02:44:44;;;;;;;4.43;1.40;;;;;;;8.78;94.15;101882.53;2087781;28;20707;-63
2024/01/27 02:45:45;;;;;;;1.73;0.70;;;;;;;8.80;94.00;101885.69;2086837;28;20190;-63
2024/01/27 02:46:45;;;;;;;0.77;0.70;;;;;;;8.76;94.73;101884.09;2088099;28;20179;-63
2024/01/27 02:47:46;;;;;;;1.63;0.80;;;;;;;8.78;94.85;101879.78;2087293;28;20641;-63
2024/01/27 02:48:46;;;;;;;2.90;1.00;;;;;;;8.82;94.18;101882.53;2087221;28;20227;-62
2024/01/27 02:49:47;;;;;;;2.30;0.97;;;;;;;8.81;94.21;101881.75;2087315;28;20232;-63
2024/01/27 02:50:47;;;;;;;6.83;1.20;;;;;;;8.86;94.27;101881.38;2087634;28;20219;-63
2024/01/27 02:51:48;;;;;;;3.73;1.20;;;;;;;8.78;93.53;101868.72;2087065;28;20233;-62
2024/01/27 02:52:49;;;;;;;3.03;1.00;;;;;;;8.84;93.37;101864.38;2087782;28;20192;-62
2024/01/27 02:53:49;;;;;;;1.87;0.83;;;;;;;8.90;93.64;101882.16;2087213;28;20697;-63
2024/01/27 02:54:51;;;;;;;1.47;0.80;;;;;;;8.91;93.06;101886.50;2088261;28;20682;-63
2024/01/27 02:55:52;;;;;;;2.43;1.13;;;;;;;8.99;93.01;101871.53;2087968;28;20194;-63
2024/01/27 02:56:52;;;;;;;2.77;1.30;;;;;;;8.95;92.65;101873.50;2087171;28;20569;-63
2024/01/27 02:57:53;;;;;;;3.57;1.20;;;;;;;8.91;92.99;101866.38;2087573;28;20642;-63
2024/01/27 02:58:53;;;;;;;2.07;0.90;;;;;;;8.90;92.49;101873.88;2086473;28;20192;-63
2024/01/27 02:59:54;;;;;;;4.67;0.90;;;;;;;8.95;92.81;101865.19;2086719;28;20196;-63
2024/01/27 03:00:54;;;;;;;3.40;0.97;;;;;;;8.95;93.07;101867.97;2087438;28;20181;-63
2024/01/27 03:01:55;;;;;;;2.33;1.10;;;;;;;8.95;93.13;101865.19;2086762;28;20229;-63
2024/01/27 03:02:58;;;;;;;2.63;0.87;;;;;;;8.96;93.48;101866.00;2087701;28;20215;-63
2024/01/27 03:03:58;;;;;;;4.37;1.10;;;;;;;8.20;93.40;101762.34;2087347;28;20311;-63
2024/01/27 03:05:00;;;;;;;3.33;0.80;;;;;;;8.22;93.83;101760.78;2087378;28;20489;-63
2024/01/27 03:06:00;;;;;;;3.10;1.27;;;;;;;8.96;93.74;101858.47;2087626;28;20184;-62
2024/01/27 03:07:01;;;;;;;2.40;0.80;;;;;;;8.99;93.46;101854.16;2087471;28;20450;-62
2024/01/27 03:08:02;;;;;;;2.30;1.07;;;;;;;9.04;93.56;101856.53;2087518;28;20227;-63
2024/01/27 03:09:03;;;;;;;2.93;1.10;;;;;;;9.10;92.84;101849.41;2086762;28;20203;-63
2024/01/27 03:10:04;;;;;;;2.50;1.10;;;;;;;9.11;92.76;101851.81;2087270;28;20254;-63
2024/01/27 03:11:05;;;;;;;2.17;0.67;;;;;;;9.16;92.65;101851.41;2086088;28;20448;-63
2024/01/27 03:12:05;;;;;;;1.53;0.90;;;;;;;9.18;92.76;101849.03;2087614;28;20998;-63
2024/01/27 03:13:06;;;;;;;3.87;1.23;;;;;;;9.23;92.22;101845.88;2087526;28;20189;-63
2024/01/27 03:14:07;;;;;;;1.93;0.80;;;;;;;9.28;92.38;101839.97;2087478;28;20211;-63
2024/01/27 03:15:07;;;;;;;2.70;1.10;;;;;;;9.32;91.62;101848.28;2086876;28;20213;-63
2024/01/27 03:16:09;;;;;;;2.53;1.03;;;;;;;9.36;91.88;101840.75;2086137;28;20188;-63
2024/01/27 03:17:09;;;;;;;2.37;1.00;;;;;;;9.29;91.38;101832.47;2087692;28;20195;-63
2024/01/27 03:18:10;;;;;;;3.20;1.00;;;;;;;9.33;91.56;101845.09;2086581;28;20434;-63
2024/01/27 03:19:11;;;;;;;4.33;1.20;;;;;;;9.31;91.10;101841.94;2086405;28;20222;-63
2024/01/27 03:20:11;;;;;;;1.53;0.90;;;;;;;9.31;91.29;101838.38;2086992;28;20180;-63
2024/01/27 03:21:12;;;;;;;3.70;1.10;;;;;;;9.27;91.57;101826.53;2088120;28;20211;-63
2024/01/27 03:22:12;;;;;;;5.63;1.20;;;;;;;9.30;92.04;101834.84;2086874;28;20192;-63
2024/01/27 03:23:13;;;;;;;2.00;0.80;;;;;;;9.37;92.04;101828.53;2087668;28;20268;-63
2024/01/27 03:24:13;;;;;;;3.17;1.07;;;;;;;9.32;91.60;101804.78;2087080;28;20188;-63
2024/01/27 03:25:14;;;;;;;3.67;1.10;;;;;;;9.41;92.08;101823.75;2086658;28;20193;-63
2024/01/27 03:26:14;;;;;;;3.17;1.00;;;;;;;9.25;91.94;101795.69;2087132;28;20208;-62
2024/01/27 03:27:15;;;;;;;2.53;0.87;;;;;;;9.45;92.00;101825.34;2087261;28;20200;-63
2024/01/27 03:28:16;;;;;;;3.03;1.03;;;;;;;9.47;92.15;101822.16;2086409;28;20694;-63
2024/01/27 03:29:16;;;;;;;4.37;1.10;;;;;;;9.45;92.33;101822.59;2087864;28;20185;-63
2024/01/27 03:30:17;;;;;;;2.33;1.00;;;;;;;9.44;92.66;101820.97;2087180;28;20228;-63
2024/01/27 03:31:17;;;;;;;3.40;1.10;;;;;;;9.48;92.79;101821.00;2087263;28;20540;-63
2024/01/27 03:32:18;;;;;;;2.63;1.10;;;;;;;9.49;93.21;101820.59;2086069;28;20350;-62
2024/01/27 03:33:18;;;;;;;1.57;0.70;;;;;;;9.26;93.69;101777.91;2087224;28;20188;-63
2024/01/27 03:34:24;;;;;;;2.73;0.90;;;;;;;9.40;93.44;101791.75;2089052;28;20192;-63
2024/01/27 03:35:24;;;;;;;2.17;1.10;;;;;;;9.57;93.77;101813.06;2089090;28;20559;-63
2024/01/27 03:36:25;;;;;;;5.03;0.93;;;;;;;9.57;93.92;101810.31;2088820;28;20427;-63
2024/01/27 03:37:25;;;;;;;2.93;0.90;;;;;;;9.61;94.30;101813.88;2088575;28;20603;-63
2024/01/27 03:38:26;;;;;;;2.30;0.77;;;;;;;8.61;93.70;101656.66;2089192;28;20572;-63
2024/01/27 03:39:26;;;;;;;2.00;1.00;;;;;;;9.35;94.17;101773.59;2088480;28;20197;-63
2024/01/27 03:40:27;;;;;;;2.63;1.00;;;;;;;9.65;94.27;101823.75;2087285;28;20211;-63
2024/01/27 03:41:27;;;;;;;2.60;1.10;;;;;;;9.69;94.29;101830.06;2088721;28;20188;-63
2024/01/27 03:42:28;;;;;;;3.27;1.13;;;;;;;9.70;95.11;101815.06;2089115;28;20180;-63
2024/01/27 03:43:30;;;;;;;1.77;0.90;;;;;;;9.68;95.87;101822.94;2089020;28;20581;-63
2024/01/27 03:44:30;;;;;;;1.37;0.80;;;;;;;9.05;96.87;101709.59;2089011;28;20190;-63
2024/01/27 03:45:31;;;;;;;3.27;1.30;;;;;;;9.22;98.72;101736.44;2088762;28;20467;-63
2024/01/27 03:46:31;;;;;;;1.63;1.10;;;;;;;9.77;99.41;101826.13;2089602;28;20184;-63
2024/01/27 03:47:32;;;;;;;2.87;1.00;;;;;;;9.81;100.00;101823.34;2088935;28;20188;-63
2024/01/27 03:48:34;;;;;;;2.37;1.20;;;;;;;9.14;100.00;101718.28;2088166;28;20192;-63
2024/01/27 03:49:35;;;;;;;2.03;0.90;;;;;;;9.79;100.00;101817.41;2088187;28;20246;-63
2024/01/27 03:50:35;;;;;;;1.83;0.80;;;;;;;9.81;100.00;101813.06;2088138;28;20442;-63
2024/01/27 03:51:36;;;;;;;2.97;1.00;;;;;;;9.81;100.00;101812.25;2088223;28;20203;-62
2024/01/27 03:52:36;;;;;;;2.23;1.00;;;;;;;9.79;100.00;101815.41;2089121;28;20180;-63
2024/01/27 03:53:37;;;;;;;2.90;1.10;;;;;;;8.83;100.00;101657.47;2088786;28;20240;-64
2024/01/27 03:54:38;;;;;;;2.00;1.00;;;;;;;9.76;100.00;101798.81;2089148;28;20184;-63
2024/01/27 03:55:39;;;;;;;1.07;0.70;;;;;;;9.79;100.00;101809.09;2089218;28;20728;-63
2024/01/27 03:56:41;;;;;;;2.97;0.87;;;;;;;9.80;100.00;101805.94;2088976;28;20903;-62
2024/01/27 03:57:41;;;;;;;3.03;1.00;;;;;;;9.50;100.00;101750.25;2088679;28;20274;-63
2024/01/27 03:58:42;;;;;;;1.80;1.03;;;;;;;9.78;100.00;101810.31;2087484;28;20697;-62
2024/01/27 03:59:43;;;;;;;2.90;1.20;;;;;;;9.80;100.00;101802.38;2088566;28;20195;-63
2024/01/27 04:00:43;;;;;;;4.17;1.00;;;;;;;9.77;100.00;101795.66;2088993;28;20665;-63
2024/01/27 04:01:43;;;;;;;3.83;1.20;;;;;;;9.74;100.00;101799.22;2088220;28;20214;-63
2024/01/27 04:02:44;;;;;;;1.37;1.00;;;;;;;9.81;100.00;101801.97;2088958;28;20240;-63
2024/01/27 04:03:45;;;;;;;3.07;1.10;;;;;;;9.80;100.00;101811.50;2089327;28;20178;-63
2024/01/27 04:04:45;;;;;;;4.57;1.30;;;;;;;9.77;100.00;101798.44;2089107;28;20258;-63
2024/01/27 04:05:46;;;;;;;1.87;0.83;;;;;;;9.69;100.00;101801.59;2088564;28;20210;-63
2024/01/27 04:06:47;;;;;;;5.27;1.00;;;;;;;9.67;100.00;101795.66;2088665;28;20649;-63
2024/01/27 04:07:47;;;;;;;6.27;1.53;;;;;;;9.56;100.00;101781.84;2088882;28;20192;-63
2024/01/27 04:08:48;;;;;;;1.87;0.97;;;;;;;9.32;100.00;101738.41;2088172;28;20192;-63
2024/01/27 04:09:48;;;;;;;4.47;1.37;;;;;;;9.68;100.00;101795.28;2088685;28;20184;-63
2024/01/27 04:10:49;;;;;;;3.23;1.27;;;;;;;9.63;100.00;101795.69;2088788;28;20180;-63
2024/01/27 04:11:51;;;;;;;1.60;1.00;;;;;;;8.89;100.00;101683.50;2088704;28;20664;-63
2024/01/27 04:12:51;;;;;;;1.67;0.97;;;;;;;8.78;100.00;101669.72;2088913;28;20438;-63
2024/01/27 04:13:52;;;;;;;0.77;0.57;;;;;;;9.40;100.00;101772.38;2088415;28;20505;-63
2024/01/27 04:14:52;;;;;;;2.47;1.17;;;;;;;9.56;100.00;101781.84;2088587;28;20207;-63
2024/01/27 04:15:53;;;;;;;1.17;0.73;;;;;;;9.56;100.00;101786.59;2088594;28;20203;-63
2024/01/27 04:16:54;;;;;;;3.03;0.80;;;;;;;9.53;100.00;101785.41;2088471;28;20561;-63
2024/01/27 04:17:55;;;;;;;2.30;0.87;;;;;;;9.50;100.00;101791.75;2088869;28;20448;-63
2024/01/27 04:18:56;;;;;;;1.17;0.80;;;;;;;9.19;100.00;101745.53;2087546;28;20185;-62
2024/01/27 04:19:56;;;;;;;1.40;0.80;;;;;;;9.53;100.00;101790.16;2088280;28;20426;-63
2024/01/27 04:20:57;;;;;;;2.27;1.00;;;;;;;9.59;100.00;101786.59;2089505;28;20217;-63
2024/01/27 04:21:57;;;;;;;2.37;0.83;;;;;;;9.54;100.00;101786.97;2088400;28;20196;-62
2024/01/27 04:22:58;;;;;;;4.63;1.17;;;;;;;9.28;100.00;101736.84;2088823;28;20192;-63
2024/01/27 04:23:58;;;;;;;1.80;0.90;;;;;;;9.62;100.00;101782.22;2088202;28;20200;-63
2024/01/27 04:24:59;;;;;;;0.90;0.53;;;;;;;9.36;100.00;101766.84;2089155;28;20785;-62
2024/01/27 04:26:00;;;;;;;2.07;0.60;;;;;;;9.54;100.00;101786.97;2088586;28;21624;-62
2024/01/27 04:27:02;;;;;;;3.00;0.83;;;;;;;9.50;100.00;101769.63;2088505;28;20620;-63
2024/01/27 04:28:03;;;;;;;1.83;0.70;;;;;;;9.58;100.00;101793.31;2087363;28;20195;-62
2024/01/27 04:29:03;;;;;;;2.93;0.87;;;;;;;9.51;100.00;101784.22;2088140;28;20429;-63
2024/01/27 04:30:06;;;;;;;1.80;0.70;;;;;;;9.23;100.00;101742.78;2088519;28;20714;-63
2024/01/27 04:31:07;;;;;;;0.80;0.50;;;;;;;8.82;100.00;101670.47;2088800;28;20389;-63
2024/01/27 04:32:07;;;;;;;1.57;0.70;;;;;;;9.47;100.00;101788.97;2088083;28;20939;-63
2024/01/27 04:33:08;;;;;;;3.13;0.73;;;;;;;9.50;100.00;101777.13;2088786;28;20281;-63
2024/01/27 04:34:08;;;;;;;1.00;0.67;;;;;;;9.50;100.00;101779.88;2088316;28;20240;-63
2024/01/27 04:35:10;;;;;;;1.20;0.70;;;;;;;9.48;100.00;101794.09;2087617;28;20204;-63
2024/01/27 04:36:10;;;;;;;0.97;0.77;;;;;;;9.42;100.00;101797.66;2088565;28;20181;-62
2024/01/27 04:37:11;;;;;;;1.23;0.77;;;;;;;9.39;100.00;101793.72;2088818;28;20426;-63
2024/01/27 04:38:11;;;;;;;1.27;0.80;;;;;;;9.31;100.00;101785.81;2088204;28;20195;-62
2024/01/27 04:39:13;;;;;;;1.70;0.90;;;;;;;9.06;100.00;101755.41;2088611;28;20188;-63
2024/01/27 04:40:14;;;;;;;0.83;0.70;;;;;;;9.36;100.00;101802.03;2088777;28;20186;-63
2024/01/27 04:41:14;;;;;;;4.57;0.90;;;;;;;9.38;100.00;101805.19;2087780;28;20439;-63
2024/01/27 04:42:16;;;;;;;0.73;0.53;;;;;;;9.36;100.00;101813.88;2087821;28;20207;-63
2024/01/27 04:43:18;;;;;;;1.23;0.50;;;;;;;9.38;100.00;101807.97;2089097;28;20234;-62
2024/01/27 04:44:20;;;;;;;1.57;0.87;;;;;;;9.34;100.00;101798.88;2088439;28;20445;-62